createdAt,value
2023-03-17T00:00:50.687Z,74.40
2023-03-17T00:05:55.700Z,74.65
2023-03-17T00:10:55.070Z,74.84
2023-03-17T00:16:01.211Z,75.00
2023-03-17T00:21:01.098Z,75.00
2023-03-17T00:26:00.518Z,75.03
2023-03-17T00:31:02.817Z,75.11
2023-03-17T00:36:03.230Z,75.21
2023-03-17T00:41:03.277Z,75.31
2023-03-17T00:46:03.297Z,75.44
2023-03-17T00:51:01.851Z,75.63
2023-03-17T00:56:00.991Z,75.80
2023-03-17T01:01:01.023Z,75.89
2023-03-17T01:06:00.555Z,76.00
2023-03-17T01:10:59.843Z,76.07
2023-03-17T01:15:59.571Z,76.11
2023-03-17T01:20:58.781Z,76.08
2023-03-17T01:25:58.819Z,76.23
2023-03-17T01:30:58.855Z,76.32
2023-03-17T01:35:58.144Z,76.44
2023-03-17T01:40:57.649Z,76.65
2023-03-17T01:46:37.644Z,76.82
2023-03-17T01:51:44.524Z,77.14
2023-03-17T01:56:49.186Z,77.35
2023-03-17T02:01:54.225Z,77.54
2023-03-17T02:06:58.449Z,77.68
2023-03-17T02:11:59.958Z,77.77
2023-03-17T02:17:00.018Z,77.89
2023-03-17T02:22:01.046Z,78.03
2023-03-17T02:27:05.790Z,78.10
2023-03-17T02:32:05.586Z,78.17
2023-03-17T02:37:04.967Z,78.25
2023-03-17T02:42:05.470Z,78.31
2023-03-17T02:47:07.597Z,78.36
2023-03-17T02:52:07.515Z,78.43
2023-03-17T02:57:07.671Z,78.50
2023-03-17T03:02:07.094Z,78.52
2023-03-17T03:07:06.461Z,78.50
2023-03-17T03:12:06.221Z,78.52
2023-03-17T03:17:05.973Z,78.55
2023-03-17T03:22:05.237Z,78.60
2023-03-17T03:27:04.861Z,78.50
2023-03-17T03:32:04.718Z,78.50
2023-03-17T03:37:03.638Z,78.54
2023-03-17T03:42:02.658Z,78.61
2023-03-17T03:47:02.788Z,78.64
2023-03-17T03:52:01.993Z,78.70
2023-03-17T03:57:01.193Z,78.71
2023-03-17T04:02:00.366Z,78.72
2023-03-17T04:07:00.260Z,78.75
2023-03-17T04:11:59.630Z,78.83
2023-03-17T04:16:58.506Z,78.95
2023-03-17T04:21:57.761Z,79.01
2023-03-17T04:26:57.549Z,79.13
2023-03-17T04:31:57.196Z,79.21
2023-03-17T04:36:56.571Z,79.27
2023-03-17T04:41:55.996Z,79.21
2023-03-17T04:46:54.854Z,79.25
2023-03-17T04:51:53.875Z,79.25
2023-03-17T04:56:53.495Z,79.31
2023-03-17T05:01:53.733Z,79.32
2023-03-17T05:06:53.256Z,79.40
2023-03-17T05:11:53.065Z,79.42
2023-03-17T05:16:53.726Z,79.50
2023-03-17T05:21:52.742Z,79.56
2023-03-17T05:26:51.774Z,79.57
2023-03-17T05:31:51.087Z,79.60
2023-03-17T05:36:50.576Z,79.60
2023-03-17T05:41:50.508Z,79.60
2023-03-17T05:46:49.747Z,79.54
2023-03-17T05:51:49.076Z,79.60
2023-03-17T05:56:48.136Z,79.46
2023-03-17T06:01:47.735Z,79.24
2023-03-17T06:06:46.978Z,79.11
2023-03-17T06:11:46.199Z,78.86
2023-03-17T06:16:45.231Z,78.60
2023-03-17T06:21:44.276Z,78.30
2023-03-17T06:26:44.063Z,77.89
2023-03-17T06:31:50.590Z,77.47
2023-03-17T06:36:51.127Z,77.25
2023-03-17T06:41:51.206Z,77.11
2023-03-17T06:46:51.387Z,77.11
2023-03-17T06:51:51.651Z,76.76
2023-03-17T06:56:51.139Z,76.60
2023-03-17T07:01:52.172Z,76.39
2023-03-17T07:06:51.688Z,76.08
2023-03-17T07:11:51.818Z,75.89
2023-03-17T07:16:52.635Z,75.67
2023-03-17T07:21:51.473Z,75.66
2023-03-17T07:26:51.049Z,75.60
2023-03-17T07:31:50.738Z,75.25
2023-03-17T07:36:49.456Z,74.76
2023-03-17T07:41:53.233Z,74.09
2023-03-17T07:46:53.067Z,73.69
2023-03-17T07:51:52.490Z,73.06
2023-03-17T07:56:51.729Z,71.95
2023-03-17T08:01:51.032Z,70.82
2023-03-17T08:06:50.597Z,70.89
2023-03-17T08:11:49.862Z,69.63
2023-03-17T08:16:48.764Z,68.24
2023-03-17T08:21:47.521Z,67.54
2023-03-17T08:26:49.146Z,66.75
2023-03-17T08:31:48.367Z,66.18
2023-03-17T08:36:47.948Z,64.94
2023-03-17T08:41:47.228Z,63.47
2023-03-17T08:46:47.338Z,62.13
2023-03-17T08:51:49.036Z,61.24
2023-03-17T08:56:48.987Z,59.38
2023-03-17T09:01:49.124Z,56.33
2023-03-17T09:07:02.380Z,54.60
2023-03-17T09:12:03.270Z,52.67
2023-03-17T09:17:05.408Z,51.84
2023-03-17T09:22:07.026Z,51.03
2023-03-17T09:27:07.119Z,50.90
2023-03-17T09:32:06.288Z,50.72
2023-03-17T09:37:05.573Z,49.15
2023-03-17T09:42:26.416Z,49.48
2023-03-17T09:47:50.164Z,47.03
2023-03-17T09:52:51.551Z,47.33
2023-03-17T09:57:55.940Z,48.27
2023-03-17T10:02:55.794Z,47.24
2023-03-17T10:08:19.083Z,46.91
2023-03-17T10:13:47.327Z,45.65
2023-03-17T10:18:53.242Z,44.69
2023-03-17T10:23:54.541Z,43.09
2023-03-17T10:28:54.432Z,42.86
2023-03-17T10:33:55.761Z,42.02
2023-03-17T10:38:57.254Z,41.16
2023-03-17T10:43:59.676Z,40.22
2023-03-17T10:49:08.415Z,38.76
2023-03-17T10:54:19.204Z,38.87
2023-03-17T10:59:28.972Z,38.49
2023-03-17T11:04:42.691Z,38.28
2023-03-17T11:09:42.741Z,36.85
2023-03-17T11:14:46.049Z,35.80
2023-03-17T11:19:56.032Z,36.15
2023-03-17T11:25:10.230Z,34.99
2023-03-17T11:30:24.548Z,34.19
2023-03-17T11:41:19.961Z,34.69
2023-03-17T11:46:27.696Z,33.33
2023-03-17T11:51:37.751Z,33.49
2023-03-17T11:56:48.308Z,33.65
2023-03-17T12:01:59.818Z,33.48
2023-03-17T12:07:09.597Z,32.60
2023-03-17T12:12:13.818Z,32.22
2023-03-17T12:17:26.838Z,32.88
2023-03-17T12:22:38.528Z,33.09
2023-03-17T12:27:51.837Z,32.10
2023-03-17T12:33:00.724Z,32.05
2023-03-17T12:38:03.112Z,31.28
2023-03-17T12:43:30.801Z,32.63
2023-03-17T12:49:05.154Z,33.90
2023-03-17T12:54:04.763Z,34.72
2023-03-17T12:59:10.235Z,34.60
2023-03-17T13:04:32.734Z,33.79
2023-03-17T13:10:10.514Z,33.32
2023-03-17T13:15:32.154Z,34.07
2023-03-17T13:20:44.777Z,34.24
2023-03-17T13:25:55.452Z,34.40
2023-03-17T13:31:16.348Z,34.19
2023-03-17T13:36:34.793Z,34.12
2023-03-17T13:42:15.792Z,34.22
2023-03-17T13:47:42.164Z,34.56
2023-03-17T13:52:50.580Z,34.74
2023-03-17T13:58:23.910Z,35.38
2023-03-17T14:03:35.632Z,35.92
2023-03-17T14:08:39.407Z,36.08
2023-03-17T14:13:50.044Z,36.38
2023-03-17T14:18:55.527Z,36.63
2023-03-17T14:24:01.684Z,36.56
2023-03-17T14:29:05.696Z,36.57
2023-03-17T14:34:05.622Z,36.85
2023-03-17T14:39:04.580Z,37.00
2023-03-17T14:44:04.639Z,36.73
2023-03-17T14:49:15.894Z,36.78
2023-03-17T14:54:23.152Z,36.85
2023-03-17T14:59:29.197Z,36.95
2023-03-17T15:04:31.544Z,36.87
2023-03-17T15:09:36.414Z,36.96
2023-03-17T15:14:40.405Z,36.97
2023-03-17T15:19:45.188Z,36.96
2023-03-17T15:24:45.554Z,36.90
2023-03-17T15:29:45.037Z,36.78
2023-03-17T15:34:45.265Z,37.19
2023-03-17T15:39:47.640Z,37.40
2023-03-17T15:44:46.542Z,37.46
2023-03-17T15:49:46.781Z,37.31
2023-03-17T15:54:46.447Z,37.78
2023-03-17T15:59:46.688Z,37.83
2023-03-17T16:04:46.336Z,37.99
2023-03-17T16:09:47.083Z,38.24
2023-03-17T16:14:47.473Z,38.63
2023-03-17T16:19:46.709Z,39.06
2023-03-17T16:24:45.993Z,39.35
2023-03-17T16:29:45.794Z,39.66
2023-03-17T16:34:45.758Z,39.85
2023-03-17T16:39:45.300Z,40.06
2023-03-17T16:44:45.486Z,40.48
2023-03-17T16:49:44.439Z,40.97
2023-03-17T16:54:44.558Z,41.69
2023-03-17T16:59:44.193Z,42.12
2023-03-17T17:04:43.925Z,42.42
2023-03-17T17:09:43.052Z,42.78
2023-03-17T17:14:45.706Z,43.37
2023-03-17T17:19:45.664Z,43.96
2023-03-17T17:24:44.666Z,44.37
2023-03-17T17:29:44.488Z,44.76
2023-03-17T17:34:43.404Z,45.12
2023-03-17T17:39:42.916Z,45.43
2023-03-17T17:44:42.900Z,45.81
2023-03-17T17:49:43.317Z,46.08
2023-03-17T17:54:42.317Z,46.43
2023-03-17T17:59:41.667Z,46.68
2023-03-17T18:04:40.477Z,46.92
2023-03-17T18:09:39.563Z,47.05
2023-03-17T18:14:38.922Z,47.21
2023-03-17T18:19:38.735Z,47.42
2023-03-17T18:24:38.030Z,47.69
2023-03-17T18:29:37.450Z,47.94
2023-03-17T18:34:43.576Z,48.10
2023-03-17T18:39:44.500Z,48.35
2023-03-17T18:44:44.439Z,48.59
2023-03-17T18:49:47.248Z,48.76
2023-03-17T18:54:49.220Z,48.96
2023-03-17T18:59:48.779Z,49.13
2023-03-17T19:04:47.925Z,49.27
2023-03-17T19:09:47.174Z,49.35
2023-03-17T19:14:46.374Z,49.49
2023-03-17T19:19:45.668Z,49.66
2023-03-17T19:24:46.101Z,49.74
2023-03-17T19:29:45.160Z,49.80
2023-03-17T19:34:44.558Z,49.81
2023-03-17T19:39:45.569Z,49.83
2023-03-17T19:44:44.886Z,49.78
2023-03-17T19:49:43.696Z,49.74
2023-03-17T19:54:45.928Z,49.70
2023-03-17T19:59:45.569Z,49.67
2023-03-17T20:04:44.798Z,49.57
2023-03-17T20:09:46.390Z,49.49
2023-03-17T20:14:46.239Z,49.49
2023-03-17T20:19:46.348Z,49.42
2023-03-17T20:24:45.967Z,49.42
2023-03-17T20:29:46.539Z,49.46
2023-03-17T20:34:47.395Z,49.46
2023-03-17T20:39:46.888Z,49.48
2023-03-17T20:44:52.785Z,49.52
2023-03-17T20:49:53.318Z,49.49
2023-03-17T20:54:52.563Z,49.51
2023-03-17T20:59:51.509Z,49.56
2023-03-17T21:04:51.502Z,49.60
2023-03-17T21:09:52.048Z,49.71
2023-03-17T21:14:52.250Z,49.81
2023-03-17T21:19:51.204Z,49.90
2023-03-17T21:24:50.144Z,50.04
2023-03-17T21:29:50.271Z,50.15
2023-03-17T21:34:50.781Z,50.23
2023-03-17T21:39:50.670Z,50.31
2023-03-17T21:44:52.122Z,50.34
2023-03-17T21:49:51.502Z,50.40
2023-03-17T21:54:50.615Z,50.49
2023-03-17T21:59:52.350Z,50.49
2023-03-17T22:04:52.486Z,50.51
2023-03-17T22:09:54.831Z,50.54
2023-03-17T22:14:57.277Z,50.49
2023-03-17T22:19:58.212Z,50.51
2023-03-17T22:24:58.199Z,50.43
2023-03-17T22:29:57.906Z,50.45
2023-03-17T22:34:57.499Z,50.46
2023-03-17T22:40:02.602Z,50.43
2023-03-17T22:45:02.475Z,50.32
2023-03-17T22:50:02.281Z,50.27
2023-03-17T22:55:01.542Z,50.24
2023-03-17T23:00:01.123Z,50.15
2023-03-17T23:05:00.957Z,50.03
2023-03-17T23:10:00.748Z,49.99
2023-03-17T23:15:00.642Z,49.92
2023-03-17T23:20:02.916Z,49.73
2023-03-17T23:25:03.841Z,49.60
2023-03-17T23:30:03.783Z,49.52
2023-03-17T23:35:03.386Z,49.40
2023-03-17T23:40:02.800Z,49.22
2023-03-17T23:45:02.282Z,49.18
2023-03-17T23:50:02.231Z,49.10
2023-03-17T23:55:02.172Z,48.97
